Blue Ridge, New York
Current Conditions -  °F | °C
As of 1:35 PM on Thursday 27 Nov 2014 (Local Time) from K6B0 Reporting Station
Overcast Overcast  
Wind Chill: -5°   Ceiling: 2400
Heat Index: -1°   Visibility: 10mi
Dew Point: -5°   Wind: 8mph
Humidity: 74%   Direction: 340°NNW
Pressure: 29.99"   Gusts: NA
Location:  43.8504°N, 73.7678°W
Report Text: K6B0 271835Z AUTO 34007KT 10SM BKN024 OVC030 M01/M05 A2999 RMK AO2 T10101051
Loading
Personal Weather Stations






























Interactive Weather Map New forecast layout! Learn more

10-Day Weather Forecast

Advertisements
Track Severe Weather on mobile